sensor_id;sensor_type;location;lat;lon;timestamp;temperature;humidity
67157;SHT31;54086;50.126;8.710;2024-02-26T00:01:27;7.37;82.24
67157;SHT31;54086;50.126;8.710;2024-02-26T00:03:52;7.41;82.56
67157;SHT31;54086;50.126;8.710;2024-02-26T00:06:18;7.34;82.73
67157;SHT31;54086;50.126;8.710;2024-02-26T00:08:44;7.31;82.71
67157;SHT31;54086;50.126;8.710;2024-02-26T00:11:10;7.40;82.35
67157;SHT31;54086;50.126;8.710;2024-02-26T00:13:36;7.41;82.25
67157;SHT31;54086;50.126;8.710;2024-02-26T00:16:03;7.38;82.36
67157;SHT31;54086;50.126;8.710;2024-02-26T00:18:29;7.40;82.41
67157;SHT31;54086;50.126;8.710;2024-02-26T00:20:54;7.44;82.41
67157;SHT31;54086;50.126;8.710;2024-02-26T00:23:19;7.52;82.13
67157;SHT31;54086;50.126;8.710;2024-02-26T00:25:45;7.57;81.97
67157;SHT31;54086;50.126;8.710;2024-02-26T00:28:10;7.54;82.00
67157;SHT31;54086;50.126;8.710;2024-02-26T00:30:36;7.55;82.16
67157;SHT31;54086;50.126;8.710;2024-02-26T00:33:02;7.51;82.32
67157;SHT31;54086;50.126;8.710;2024-02-26T00:35:28;7.52;82.14
67157;SHT31;54086;50.126;8.710;2024-02-26T00:37:53;7.50;82.06
67157;SHT31;54086;50.126;8.710;2024-02-26T00:40:19;7.52;81.94
67157;SHT31;54086;50.126;8.710;2024-02-26T00:42:44;7.48;81.52
67157;SHT31;54086;50.126;8.710;2024-02-26T00:45:14;7.54;81.19
67157;SHT31;54086;50.126;8.710;2024-02-26T00:47:41;7.48;81.37
67157;SHT31;54086;50.126;8.710;2024-02-26T00:50:07;7.43;81.27
67157;SHT31;54086;50.126;8.710;2024-02-26T00:52:33;7.47;81.43
67157;SHT31;54086;50.126;8.710;2024-02-26T00:54:59;7.47;81.76
67157;SHT31;54086;50.126;8.710;2024-02-26T00:57:25;7.35;82.01
67157;SHT31;54086;50.126;8.710;2024-02-26T00:59:50;7.32;82.28
67157;SHT31;54086;50.126;8.710;2024-02-26T01:02:16;7.23;82.65
67157;SHT31;54086;50.126;8.710;2024-02-26T01:04:41;7.16;83.02
67157;SHT31;54086;50.126;8.710;2024-02-26T01:07:06;7.23;82.80
67157;SHT31;54086;50.126;8.710;2024-02-26T01:09:32;7.20;82.77
67157;SHT31;54086;50.126;8.710;2024-02-26T01:11:57;7.26;82.66
67157;SHT31;54086;50.126;8.710;2024-02-26T01:14:23;7.27;82.43
67157;SHT31;54086;50.126;8.710;2024-02-26T01:16:48;7.31;82.26
67157;SHT31;54086;50.126;8.710;2024-02-26T01:19:14;7.28;82.64
67157;SHT31;54086;50.126;8.710;2024-02-26T01:21:40;7.27;82.88
67157;SHT31;54086;50.126;8.710;2024-02-26T01:24:05;7.37;82.70
67157;SHT31;54086;50.126;8.710;2024-02-26T01:26:31;7.35;82.51
67157;SHT31;54086;50.126;8.710;2024-02-26T01:28:56;7.41;82.64
67157;SHT31;54086;50.126;8.710;2024-02-26T01:31:22;7.40;82.42
67157;SHT31;54086;50.126;8.710;2024-02-26T01:33:47;7.43;82.57
67157;SHT31;54086;50.126;8.710;2024-02-26T01:36:13;7.46;82.40
67157;SHT31;54086;50.126;8.710;2024-02-26T01:38:38;7.46;82.40
67157;SHT31;54086;50.126;8.710;2024-02-26T01:41:03;7.46;82.37
67157;SHT31;54086;50.126;8.710;2024-02-26T01:43:29;7.55;82.44
67157;SHT31;54086;50.126;8.710;2024-02-26T01:45:55;7.52;82.39
67157;SHT31;54086;50.126;8.710;2024-02-26T01:48:20;7.47;82.66
67157;SHT31;54086;50.126;8.710;2024-02-26T01:50:46;7.41;82.72
67157;SHT31;54086;50.126;8.710;2024-02-26T01:53:12;7.48;82.77
67157;SHT31;54086;50.126;8.710;2024-02-26T01:55:38;7.46;82.72
67157;SHT31;54086;50.126;8.710;2024-02-26T01:58:04;7.44;83.04
67157;SHT31;54086;50.126;8.710;2024-02-26T02:00:30;7.47;82.92
67157;SHT31;54086;50.126;8.710;2024-02-26T02:02:55;7.44;82.93
67157;SHT31;54086;50.126;8.710;2024-02-26T02:05:21;7.44;82.97
67157;SHT31;54086;50.126;8.710;2024-02-26T02:07:47;7.47;82.98
67157;SHT31;54086;50.126;8.710;2024-02-26T02:10:15;7.57;82.98
67157;SHT31;54086;50.126;8.710;2024-02-26T02:12:40;7.51;83.03
67157;SHT31;54086;50.126;8.710;2024-02-26T02:15:06;7.57;83.08
67157;SHT31;54086;50.126;8.710;2024-02-26T02:17:32;7.47;83.17
67157;SHT31;54086;50.126;8.710;2024-02-26T02:19:57;7.37;83.33
67157;SHT31;54086;50.126;8.710;2024-02-26T02:22:23;7.44;83.33
67157;SHT31;54086;50.126;8.710;2024-02-26T02:24:49;7.35;83.64
67157;SHT31;54086;50.126;8.710;2024-02-26T02:27:14;7.35;83.61
67157;SHT31;54086;50.126;8.710;2024-02-26T02:29:40;7.35;83.73
67157;SHT31;54086;50.126;8.710;2024-02-26T02:32:06;7.37;83.75
67157;SHT31;54086;50.126;8.710;2024-02-26T02:34:32;7.44;83.55
67157;SHT31;54086;50.126;8.710;2024-02-26T02:36:59;7.44;83.56
67157;SHT31;54086;50.126;8.710;2024-02-26T02:39:24;7.47;83.54
67157;SHT31;54086;50.126;8.710;2024-02-26T02:41:50;7.51;83.24
67157;SHT31;54086;50.126;8.710;2024-02-26T02:44:15;7.50;82.89
67157;SHT31;54086;50.126;8.710;2024-02-26T02:46:41;7.50;83.01
67157;SHT31;54086;50.126;8.710;2024-02-26T02:49:09;7.51;83.28
67157;SHT31;54086;50.126;8.710;2024-02-26T02:51:35;7.52;83.23
67157;SHT31;54086;50.126;8.710;2024-02-26T02:54:01;7.50;83.48
67157;SHT31;54086;50.126;8.710;2024-02-26T02:56:26;7.44;83.86
67157;SHT31;54086;50.126;8.710;2024-02-26T02:58:52;7.52;83.59
67157;SHT31;54086;50.126;8.710;2024-02-26T03:01:17;7.51;83.54
67157;SHT31;54086;50.126;8.710;2024-02-26T03:03:43;7.54;83.66
67157;SHT31;54086;50.126;8.710;2024-02-26T03:06:08;7.51;83.73
67157;SHT31;54086;50.126;8.710;2024-02-26T03:08:33;7.47;83.61
67157;SHT31;54086;50.126;8.710;2024-02-26T03:11:03;7.51;83.53
67157;SHT31;54086;50.126;8.710;2024-02-26T03:13:29;7.47;83.72
67157;SHT31;54086;50.126;8.710;2024-02-26T03:15:54;7.41;83.88
67157;SHT31;54086;50.126;8.710;2024-02-26T03:18:19;7.40;83.86
67157;SHT31;54086;50.126;8.710;2024-02-26T03:20:45;7.41;84.15
67157;SHT31;54086;50.126;8.710;2024-02-26T03:23:10;7.47;84.46
67157;SHT31;54086;50.126;8.710;2024-02-26T03:25:38;7.50;84.45
67157;SHT31;54086;50.126;8.710;2024-02-26T03:28:04;7.51;84.22
67157;SHT31;54086;50.126;8.710;2024-02-26T03:30:29;7.44;84.50
67157;SHT31;54086;50.126;8.710;2024-02-26T03:32:54;7.40;84.42
67157;SHT31;54086;50.126;8.710;2024-02-26T03:35:20;7.35;84.72
67157;SHT31;54086;50.126;8.710;2024-02-26T03:37:48;7.41;84.88
67157;SHT31;54086;50.126;8.710;2024-02-26T03:40:15;7.46;84.97
67157;SHT31;54086;50.126;8.710;2024-02-26T03:42:41;7.51;84.55
67157;SHT31;54086;50.126;8.710;2024-02-26T03:45:06;7.41;84.97
67157;SHT31;54086;50.126;8.710;2024-02-26T03:47:32;7.51;84.64
67157;SHT31;54086;50.126;8.710;2024-02-26T03:49:57;7.46;84.60
67157;SHT31;54086;50.126;8.710;2024-02-26T03:52:24;7.51;83.99
67157;SHT31;54086;50.126;8.710;2024-02-26T03:54:49;7.52;83.66
67157;SHT31;54086;50.126;8.710;2024-02-26T03:57:15;7.50;83.54
67157;SHT31;54086;50.126;8.710;2024-02-26T03:59:40;7.57;83.20
67157;SHT31;54086;50.126;8.710;2024-02-26T04:02:06;7.58;82.94
67157;SHT31;54086;50.126;8.710;2024-02-26T04:04:34;7.57;83.16
67157;SHT31;54086;50.126;8.710;2024-02-26T04:06:59;7.50;83.38
67157;SHT31;54086;50.126;8.710;2024-02-26T04:09:25;7.48;83.46
67157;SHT31;54086;50.126;8.710;2024-02-26T04:11:50;7.46;83.70
67157;SHT31;54086;50.126;8.710;2024-02-26T04:14:16;7.46;83.52
67157;SHT31;54086;50.126;8.710;2024-02-26T04:16:41;7.44;83.59
67157;SHT31;54086;50.126;8.710;2024-02-26T04:19:07;7.43;83.81
67157;SHT31;54086;50.126;8.710;2024-02-26T04:21:32;7.35;84.56
67157;SHT31;54086;50.126;8.710;2024-02-26T04:23:58;7.38;84.41
67157;SHT31;54086;50.126;8.710;2024-02-26T04:26:27;7.35;84.35
67157;SHT31;54086;50.126;8.710;2024-02-26T04:28:52;7.32;84.47
67157;SHT31;54086;50.126;8.710;2024-02-26T04:31:18;7.30;84.49
67157;SHT31;54086;50.126;8.710;2024-02-26T04:33:43;7.34;84.48
67157;SHT31;54086;50.126;8.710;2024-02-26T04:36:13;7.31;84.46
67157;SHT31;54086;50.126;8.710;2024-02-26T04:38:40;7.31;85.00
67157;SHT31;54086;50.126;8.710;2024-02-26T04:41:05;7.27;84.97
67157;SHT31;54086;50.126;8.710;2024-02-26T04:43:30;7.27;85.27
67157;SHT31;54086;50.126;8.710;2024-02-26T04:45:56;7.27;85.49
67157;SHT31;54086;50.126;8.710;2024-02-26T04:48:22;7.26;85.61
67157;SHT31;54086;50.126;8.710;2024-02-26T04:50:48;7.30;86.04
67157;SHT31;54086;50.126;8.710;2024-02-26T04:53:13;7.30;85.81
67157;SHT31;54086;50.126;8.710;2024-02-26T04:55:39;7.26;86.38
67157;SHT31;54086;50.126;8.710;2024-02-26T04:58:04;7.30;86.58
67157;SHT31;54086;50.126;8.710;2024-02-26T05:00:30;7.24;86.42
67157;SHT31;54086;50.126;8.710;2024-02-26T05:02:55;7.21;86.62
67157;SHT31;54086;50.126;8.710;2024-02-26T05:05:20;7.17;86.59
67157;SHT31;54086;50.126;8.710;2024-02-26T05:07:46;7.13;86.80
67157;SHT31;54086;50.126;8.710;2024-02-26T05:10:11;7.11;87.50
67157;SHT31;54086;50.126;8.710;2024-02-26T05:12:37;7.06;87.90
67157;SHT31;54086;50.126;8.710;2024-02-26T05:15:03;7.11;88.22
67157;SHT31;54086;50.126;8.710;2024-02-26T05:17:30;7.10;88.05
67157;SHT31;54086;50.126;8.710;2024-02-26T05:19:55;7.10;88.48
67157;SHT31;54086;50.126;8.710;2024-02-26T05:22:20;7.17;88.85
67157;SHT31;54086;50.126;8.710;2024-02-26T05:24:46;7.11;89.12
67157;SHT31;54086;50.126;8.710;2024-02-26T05:27:11;7.14;88.76
67157;SHT31;54086;50.126;8.710;2024-02-26T05:29:37;7.10;89.31
67157;SHT31;54086;50.126;8.710;2024-02-26T05:32:03;7.11;89.00
67157;SHT31;54086;50.126;8.710;2024-02-26T05:34:29;7.06;89.84
67157;SHT31;54086;50.126;8.710;2024-02-26T05:36:55;7.06;89.39
67157;SHT31;54086;50.126;8.710;2024-02-26T05:39:21;7.07;89.42
67157;SHT31;54086;50.126;8.710;2024-02-26T05:41:46;7.09;89.52
67157;SHT31;54086;50.126;8.710;2024-02-26T05:44:12;6.99;90.06
67157;SHT31;54086;50.126;8.710;2024-02-26T05:46:37;6.99;90.04
67157;SHT31;54086;50.126;8.710;2024-02-26T05:49:02;6.99;89.23
67157;SHT31;54086;50.126;8.710;2024-02-26T05:51:28;6.99;90.69
67157;SHT31;54086;50.126;8.710;2024-02-26T05:53:53;6.95;90.75
67157;SHT31;54086;50.126;8.710;2024-02-26T05:56:23;6.95;91.22
67157;SHT31;54086;50.126;8.710;2024-02-26T05:58:48;6.92;90.52
67157;SHT31;54086;50.126;8.710;2024-02-26T06:01:15;6.86;91.04
67157;SHT31;54086;50.126;8.710;2024-02-26T06:03:41;6.88;90.68
67157;SHT31;54086;50.126;8.710;2024-02-26T06:06:07;6.85;91.05
67157;SHT31;54086;50.126;8.710;2024-02-26T06:08:32;6.83;90.62
67157;SHT31;54086;50.126;8.710;2024-02-26T06:10:58;6.89;90.44
67157;SHT31;54086;50.126;8.710;2024-02-26T06:13:24;6.89;91.35
67157;SHT31;54086;50.126;8.710;2024-02-26T06:15:49;6.80;91.69
67157;SHT31;54086;50.126;8.710;2024-02-26T06:18:15;6.83;91.10
67157;SHT31;54086;50.126;8.710;2024-02-26T06:20:41;6.79;91.97
67157;SHT31;54086;50.126;8.710;2024-02-26T06:23:06;6.78;92.08
67157;SHT31;54086;50.126;8.710;2024-02-26T06:25:32;6.69;92.74
67157;SHT31;54086;50.126;8.710;2024-02-26T06:27:57;6.67;92.59
67157;SHT31;54086;50.126;8.710;2024-02-26T06:30:23;6.62;93.31
67157;SHT31;54086;50.126;8.710;2024-02-26T06:32:48;6.52;92.53
67157;SHT31;54086;50.126;8.710;2024-02-26T06:35:13;6.53;92.83
67157;SHT31;54086;50.126;8.710;2024-02-26T06:37:39;6.62;93.53
67157;SHT31;54086;50.126;8.710;2024-02-26T06:40:05;6.67;93.40
67157;SHT31;54086;50.126;8.710;2024-02-26T06:42:32;6.62;93.13
67157;SHT31;54086;50.126;8.710;2024-02-26T06:44:57;6.49;93.89
67157;SHT31;54086;50.126;8.710;2024-02-26T06:47:23;6.55;93.92
67157;SHT31;54086;50.126;8.710;2024-02-26T06:49:48;6.61;94.03
67157;SHT31;54086;50.126;8.710;2024-02-26T06:52:14;6.58;94.86
67157;SHT31;54086;50.126;8.710;2024-02-26T06:54:39;6.55;94.01
67157;SHT31;54086;50.126;8.710;2024-02-26T06:57:04;6.53;94.55
67157;SHT31;54086;50.126;8.710;2024-02-26T06:59:30;6.58;93.84
67157;SHT31;54086;50.126;8.710;2024-02-26T07:01:55;6.49;93.51
67157;SHT31;54086;50.126;8.710;2024-02-26T07:04:22;6.51;93.77
67157;SHT31;54086;50.126;8.710;2024-02-26T07:06:47;6.51;93.67
67157;SHT31;54086;50.126;8.710;2024-02-26T07:09:13;6.61;93.55
67157;SHT31;54086;50.126;8.710;2024-02-26T07:11:38;6.56;93.96
67157;SHT31;54086;50.126;8.710;2024-02-26T07:14:08;6.44;94.75
67157;SHT31;54086;50.126;8.710;2024-02-26T07:16:33;6.41;94.43
67157;SHT31;54086;50.126;8.710;2024-02-26T07:18:59;6.51;95.50
67157;SHT31;54086;50.126;8.710;2024-02-26T07:21:24;6.37;95.09
67157;SHT31;54086;50.126;8.710;2024-02-26T07:23:49;6.42;96.14
67157;SHT31;54086;50.126;8.710;2024-02-26T07:26:15;6.42;95.26
67157;SHT31;54086;50.126;8.710;2024-02-26T07:28:42;6.48;95.19
67157;SHT31;54086;50.126;8.710;2024-02-26T07:31:07;6.34;94.97
67157;SHT31;54086;50.126;8.710;2024-02-26T07:33:33;6.45;94.54
67157;SHT31;54086;50.126;8.710;2024-02-26T07:35:58;6.40;95.33
67157;SHT31;54086;50.126;8.710;2024-02-26T07:38:24;6.38;95.31
67157;SHT31;54086;50.126;8.710;2024-02-26T07:40:49;6.35;95.49
67157;SHT31;54086;50.126;8.710;2024-02-26T07:43:15;6.34;95.52
67157;SHT31;54086;50.126;8.710;2024-02-26T07:45:40;6.28;95.58
67157;SHT31;54086;50.126;8.710;2024-02-26T07:48:06;6.24;95.74
67157;SHT31;54086;50.126;8.710;2024-02-26T07:50:31;6.24;95.59
67157;SHT31;54086;50.126;8.710;2024-02-26T07:52:57;6.21;96.15
67157;SHT31;54086;50.126;8.710;2024-02-26T07:55:23;6.17;95.82
67157;SHT31;54086;50.126;8.710;2024-02-26T07:57:49;6.22;95.92
67157;SHT31;54086;50.126;8.710;2024-02-26T08:00:14;6.24;96.26
67157;SHT31;54086;50.126;8.710;2024-02-26T08:02:42;6.27;96.15
67157;SHT31;54086;50.126;8.710;2024-02-26T08:05:08;6.31;95.74
67157;SHT31;54086;50.126;8.710;2024-02-26T08:07:33;6.34;96.31
67157;SHT31;54086;50.126;8.710;2024-02-26T08:09:59;6.30;96.26
67157;SHT31;54086;50.126;8.710;2024-02-26T08:12:24;6.37;95.87
67157;SHT31;54086;50.126;8.710;2024-02-26T08:14:49;6.22;96.15
67157;SHT31;54086;50.126;8.710;2024-02-26T08:17:15;6.25;96.28
67157;SHT31;54086;50.126;8.710;2024-02-26T08:19:41;6.37;96.26
67157;SHT31;54086;50.126;8.710;2024-02-26T08:22:06;6.41;96.54
67157;SHT31;54086;50.126;8.710;2024-02-26T08:24:32;6.42;96.83
67157;SHT31;54086;50.126;8.710;2024-02-26T08:26:57;6.44;97.33
67157;SHT31;54086;50.126;8.710;2024-02-26T08:29:23;6.44;96.95
67157;SHT31;54086;50.126;8.710;2024-02-26T08:31:48;6.48;97.28
67157;SHT31;54086;50.126;8.710;2024-02-26T08:34:14;6.40;96.90
67157;SHT31;54086;50.126;8.710;2024-02-26T08:36:39;6.40;96.56
67157;SHT31;54086;50.126;8.710;2024-02-26T08:39:04;6.48;96.46
67157;SHT31;54086;50.126;8.710;2024-02-26T08:41:30;6.64;96.80
67157;SHT31;54086;50.126;8.710;2024-02-26T08:43:55;6.76;96.32
67157;SHT31;54086;50.126;8.710;2024-02-26T08:46:21;6.71;96.55
67157;SHT31;54086;50.126;8.710;2024-02-26T08:48:46;6.82;96.54
67157;SHT31;54086;50.126;8.710;2024-02-26T08:51:12;6.72;96.23
67157;SHT31;54086;50.126;8.710;2024-02-26T08:53:38;6.76;96.37
67157;SHT31;54086;50.126;8.710;2024-02-26T08:56:04;6.75;96.19
67157;SHT31;54086;50.126;8.710;2024-02-26T08:58:29;6.56;96.40
67157;SHT31;54086;50.126;8.710;2024-02-26T09:00:55;6.75;97.03
67157;SHT31;54086;50.126;8.710;2024-02-26T09:03:21;6.67;97.08
67157;SHT31;54086;50.126;8.710;2024-02-26T09:05:46;6.65;96.83
67157;SHT31;54086;50.126;8.710;2024-02-26T09:08:12;6.69;96.77
67157;SHT31;54086;50.126;8.710;2024-02-26T09:10:38;6.75;96.81
67157;SHT31;54086;50.126;8.710;2024-02-26T09:13:04;6.78;96.75
67157;SHT31;54086;50.126;8.710;2024-02-26T09:15:30;6.92;96.84
67157;SHT31;54086;50.126;8.710;2024-02-26T09:17:55;6.93;96.92
67157;SHT31;54086;50.126;8.710;2024-02-26T09:20:21;6.90;97.00
67157;SHT31;54086;50.126;8.710;2024-02-26T09:22:47;7.03;96.92
67157;SHT31;54086;50.126;8.710;2024-02-26T09:25:13;6.97;97.36
67157;SHT31;54086;50.126;8.710;2024-02-26T09:27:41;6.93;97.03
67157;SHT31;54086;50.126;8.710;2024-02-26T09:30:07;6.85;97.00
67157;SHT31;54086;50.126;8.710;2024-02-26T09:32:33;6.90;97.04
67157;SHT31;54086;50.126;8.710;2024-02-26T09:34:58;6.92;97.02
67157;SHT31;54086;50.126;8.710;2024-02-26T09:37:24;6.92;96.83
67157;SHT31;54086;50.126;8.710;2024-02-26T09:39:50;7.00;97.05
67157;SHT31;54086;50.126;8.710;2024-02-26T09:42:18;7.06;96.47
67157;SHT31;54086;50.126;8.710;2024-02-26T09:44:44;7.10;96.48
67157;SHT31;54086;50.126;8.710;2024-02-26T09:47:12;7.16;97.00
67157;SHT31;54086;50.126;8.710;2024-02-26T09:49:46;7.00;97.34
67157;SHT31;54086;50.126;8.710;2024-02-26T09:52:14;7.03;97.52
67157;SHT31;54086;50.126;8.710;2024-02-26T09:54:40;7.07;97.43
67157;SHT31;54086;50.126;8.710;2024-02-26T09:57:09;7.06;97.22
67157;SHT31;54086;50.126;8.710;2024-02-26T09:59:41;7.16;96.69
67157;SHT31;54086;50.126;8.710;2024-02-26T10:02:14;7.23;96.78
67157;SHT31;54086;50.126;8.710;2024-02-26T10:04:40;7.30;97.00
67157;SHT31;54086;50.126;8.710;2024-02-26T10:07:10;7.32;96.68
67157;SHT31;54086;50.126;8.710;2024-02-26T10:09:36;7.35;96.74
67157;SHT31;54086;50.126;8.710;2024-02-26T10:12:02;7.37;96.39
67157;SHT31;54086;50.126;8.710;2024-02-26T10:14:28;7.26;96.79
67157;SHT31;54086;50.126;8.710;2024-02-26T10:16:53;7.28;96.37
67157;SHT31;54086;50.126;8.710;2024-02-26T10:19:26;7.41;96.66
67157;SHT31;54086;50.126;8.710;2024-02-26T10:21:59;7.40;95.92
67157;SHT31;54086;50.126;8.710;2024-02-26T10:24:29;7.52;95.86
67157;SHT31;54086;50.126;8.710;2024-02-26T10:26:55;7.54;95.65
67157;SHT31;54086;50.126;8.710;2024-02-26T10:29:23;7.61;96.46
67157;SHT31;54086;50.126;8.710;2024-02-26T10:31:48;7.69;96.30
67157;SHT31;54086;50.126;8.710;2024-02-26T10:34:17;7.71;96.08
67157;SHT31;54086;50.126;8.710;2024-02-26T10:36:42;7.67;96.38
67157;SHT31;54086;50.126;8.710;2024-02-26T10:39:09;7.61;95.77
67157;SHT31;54086;50.126;8.710;2024-02-26T10:41:35;7.65;96.36
67157;SHT31;54086;50.126;8.710;2024-02-26T10:44:00;7.67;96.33
67157;SHT31;54086;50.126;8.710;2024-02-26T10:46:26;7.71;95.35
67157;SHT31;54086;50.126;8.710;2024-02-26T10:48:52;7.91;95.94
67157;SHT31;54086;50.126;8.710;2024-02-26T10:51:29;7.92;95.56
67157;SHT31;54086;50.126;8.710;2024-02-26T10:53:59;8.10;94.86
67157;SHT31;54086;50.126;8.710;2024-02-26T10:56:28;8.32;95.01
67157;SHT31;54086;50.126;8.710;2024-02-26T10:58:57;8.33;94.79
67157;SHT31;54086;50.126;8.710;2024-02-26T11:01:23;8.53;94.65
67157;SHT31;54086;50.126;8.710;2024-02-26T11:03:51;8.56;94.75
67157;SHT31;54086;50.126;8.710;2024-02-26T11:06:21;8.47;94.69
67157;SHT31;54086;50.126;8.710;2024-02-26T11:08:50;8.57;93.92
67157;SHT31;54086;50.126;8.710;2024-02-26T11:11:17;8.59;94.11
67157;SHT31;54086;50.126;8.710;2024-02-26T11:13:47;8.46;94.78
67157;SHT31;54086;50.126;8.710;2024-02-26T11:16:20;8.34;94.49
67157;SHT31;54086;50.126;8.710;2024-02-26T11:18:48;8.36;94.36
67157;SHT31;54086;50.126;8.710;2024-02-26T11:21:17;8.51;93.71
67157;SHT31;54086;50.126;8.710;2024-02-26T11:23:52;8.41;94.39
67157;SHT31;54086;50.126;8.710;2024-02-26T11:26:19;8.57;94.19
67157;SHT31;54086;50.126;8.710;2024-02-26T11:28:46;8.72;94.15
67157;SHT31;54086;50.126;8.710;2024-02-26T11:31:12;8.72;93.28
67157;SHT31;54086;50.126;8.710;2024-02-26T11:33:38;8.85;93.54
67157;SHT31;54086;50.126;8.710;2024-02-26T11:36:09;9.16;92.82
67157;SHT31;54086;50.126;8.710;2024-02-26T11:38:35;9.25;91.98
67157;SHT31;54086;50.126;8.710;2024-02-26T11:41:01;9.49;91.95
67157;SHT31;54086;50.126;8.710;2024-02-26T11:43:52;9.77;91.25
67157;SHT31;54086;50.126;8.710;2024-02-26T11:46:31;9.51;91.37
67157;SHT31;54086;50.126;8.710;2024-02-26T11:51:52;9.56;91.41
67157;SHT31;54086;50.126;8.710;2024-02-26T11:59:53;9.64;91.74
67157;SHT31;54086;50.126;8.710;2024-02-26T12:05:18;9.88;90.42
67157;SHT31;54086;50.126;8.710;2024-02-26T12:08:02;9.83;91.36
67157;SHT31;54086;50.126;8.710;2024-02-26T12:10:39;9.97;91.47
67157;SHT31;54086;50.126;8.710;2024-02-26T12:13:10;10.22;89.63
67157;SHT31;54086;50.126;8.710;2024-02-26T12:15:39;10.34;89.77
67157;SHT31;54086;50.126;8.710;2024-02-26T12:18:06;10.05;90.62
67157;SHT31;54086;50.126;8.710;2024-02-26T12:20:33;10.34;88.84
67157;SHT31;54086;50.126;8.710;2024-02-26T12:22:59;10.29;89.43
67157;SHT31;54086;50.126;8.710;2024-02-26T12:25:26;10.22;89.16
67157;SHT31;54086;50.126;8.710;2024-02-26T12:27:53;10.10;88.70
67157;SHT31;54086;50.126;8.710;2024-02-26T12:30:19;10.45;88.43
67157;SHT31;54086;50.126;8.710;2024-02-26T12:32:45;10.75;88.52
67157;SHT31;54086;50.126;8.710;2024-02-26T12:35:11;10.99;87.67
67157;SHT31;54086;50.126;8.710;2024-02-26T12:37:39;10.87;87.41
67157;SHT31;54086;50.126;8.710;2024-02-26T12:40:06;11.03;86.49
67157;SHT31;54086;50.126;8.710;2024-02-26T12:42:33;10.96;86.27
67157;SHT31;54086;50.126;8.710;2024-02-26T12:45:08;10.76;87.70
67157;SHT31;54086;50.126;8.710;2024-02-26T12:47:41;10.68;87.82
67157;SHT31;54086;50.126;8.710;2024-02-26T12:50:07;10.28;88.28
67157;SHT31;54086;50.126;8.710;2024-02-26T12:52:34;10.17;88.85
67157;SHT31;54086;50.126;8.710;2024-02-26T12:55:01;10.01;88.73
67157;SHT31;54086;50.126;8.710;2024-02-26T12:57:31;10.21;89.50
67157;SHT31;54086;50.126;8.710;2024-02-26T13:00:02;10.32;88.77
67157;SHT31;54086;50.126;8.710;2024-02-26T13:02:29;10.41;88.50
67157;SHT31;54086;50.126;8.710;2024-02-26T13:04:55;10.46;88.10
67157;SHT31;54086;50.126;8.710;2024-02-26T13:07:22;10.44;88.11
67157;SHT31;54086;50.126;8.710;2024-02-26T13:09:47;10.55;87.91
67157;SHT31;54086;50.126;8.710;2024-02-26T13:12:13;10.68;87.70
67157;SHT31;54086;50.126;8.710;2024-02-26T13:14:41;10.58;87.44
67157;SHT31;54086;50.126;8.710;2024-02-26T13:17:06;10.41;87.39
67157;SHT31;54086;50.126;8.710;2024-02-26T13:19:32;10.68;87.35
67157;SHT31;54086;50.126;8.710;2024-02-26T13:22:07;10.90;86.47
67157;SHT31;54086;50.126;8.710;2024-02-26T13:24:36;10.73;86.22
67157;SHT31;54086;50.126;8.710;2024-02-26T13:27:02;10.62;86.82
67157;SHT31;54086;50.126;8.710;2024-02-26T13:29:30;10.48;87.26
67157;SHT31;54086;50.126;8.710;2024-02-26T13:31:57;10.55;87.48
67157;SHT31;54086;50.126;8.710;2024-02-26T13:34:27;10.42;87.45
67157;SHT31;54086;50.126;8.710;2024-02-26T13:36:53;10.62;86.94
67157;SHT31;54086;50.126;8.710;2024-02-26T13:39:26;10.50;86.31
67157;SHT31;54086;50.126;8.710;2024-02-26T13:41:53;10.65;86.72
67157;SHT31;54086;50.126;8.710;2024-02-26T13:44:22;10.77;86.94
67157;SHT31;54086;50.126;8.710;2024-02-26T13:46:48;10.77;86.24
67157;SHT31;54086;50.126;8.710;2024-02-26T13:49:14;10.68;86.36
67157;SHT31;54086;50.126;8.710;2024-02-26T13:51:40;10.81;86.11
67157;SHT31;54086;50.126;8.710;2024-02-26T13:54:06;10.81;86.07
67157;SHT31;54086;50.126;8.710;2024-02-26T13:56:32;10.79;86.77
67157;SHT31;54086;50.126;8.710;2024-02-26T13:58:58;10.75;86.54
67157;SHT31;54086;50.126;8.710;2024-02-26T14:01:24;10.76;87.12
67157;SHT31;54086;50.126;8.710;2024-02-26T14:03:50;10.86;86.47
67157;SHT31;54086;50.126;8.710;2024-02-26T14:06:16;10.63;87.06
67157;SHT31;54086;50.126;8.710;2024-02-26T14:08:41;10.72;86.83
67157;SHT31;54086;50.126;8.710;2024-02-26T14:11:07;10.75;86.47
67157;SHT31;54086;50.126;8.710;2024-02-26T14:13:32;10.75;86.54
67157;SHT31;54086;50.126;8.710;2024-02-26T14:15:58;11.03;86.12
67157;SHT31;54086;50.126;8.710;2024-02-26T14:18:23;11.16;85.88
67157;SHT31;54086;50.126;8.710;2024-02-26T14:20:49;11.13;85.35
67157;SHT31;54086;50.126;8.710;2024-02-26T14:23:15;11.14;85.63
67157;SHT31;54086;50.126;8.710;2024-02-26T14:25:41;11.38;85.29
67157;SHT31;54086;50.126;8.710;2024-02-26T14:28:06;11.55;85.28
67157;SHT31;54086;50.126;8.710;2024-02-26T14:30:32;11.62;85.15
67157;SHT31;54086;50.126;8.710;2024-02-26T14:32:58;11.57;84.71
67157;SHT31;54086;50.126;8.710;2024-02-26T14:35:23;11.59;84.86
67157;SHT31;54086;50.126;8.710;2024-02-26T14:37:48;11.64;85.12
67157;SHT31;54086;50.126;8.710;2024-02-26T14:40:15;11.51;84.73
67157;SHT31;54086;50.126;8.710;2024-02-26T14:42:41;11.57;85.24
67157;SHT31;54086;50.126;8.710;2024-02-26T14:45:07;11.38;85.38
67157;SHT31;54086;50.126;8.710;2024-02-26T14:47:37;11.37;85.82
67157;SHT31;54086;50.126;8.710;2024-02-26T14:50:04;11.35;86.15
67157;SHT31;54086;50.126;8.710;2024-02-26T14:52:29;11.58;85.70
67157;SHT31;54086;50.126;8.710;2024-02-26T14:54:55;11.47;85.31
67157;SHT31;54086;50.126;8.710;2024-02-26T14:57:23;11.28;85.62
67157;SHT31;54086;50.126;8.710;2024-02-26T14:59:48;11.11;86.07
67157;SHT31;54086;50.126;8.710;2024-02-26T15:02:15;11.13;86.58
67157;SHT31;54086;50.126;8.710;2024-02-26T15:04:41;10.87;87.13
67157;SHT31;54086;50.126;8.710;2024-02-26T15:07:06;10.93;86.59
67157;SHT31;54086;50.126;8.710;2024-02-26T15:09:35;10.90;86.26
67157;SHT31;54086;50.126;8.710;2024-02-26T15:12:01;11.10;86.17
67157;SHT31;54086;50.126;8.710;2024-02-26T15:14:28;11.09;86.21
67157;SHT31;54086;50.126;8.710;2024-02-26T15:16:53;11.03;86.43
67157;SHT31;54086;50.126;8.710;2024-02-26T15:19:19;11.06;86.51
67157;SHT31;54086;50.126;8.710;2024-02-26T15:21:45;11.09;86.76
67157;SHT31;54086;50.126;8.710;2024-02-26T15:24:11;10.99;86.14
67157;SHT31;54086;50.126;8.710;2024-02-26T15:26:37;11.01;86.28
67157;SHT31;54086;50.126;8.710;2024-02-26T15:29:02;11.13;86.40
67157;SHT31;54086;50.126;8.710;2024-02-26T15:31:29;11.20;86.37
67157;SHT31;54086;50.126;8.710;2024-02-26T15:33:56;11.34;85.51
67157;SHT31;54086;50.126;8.710;2024-02-26T15:36:21;11.30;85.68
67157;SHT31;54086;50.126;8.710;2024-02-26T15:38:47;11.28;85.67
67157;SHT31;54086;50.126;8.710;2024-02-26T15:41:13;11.30;85.66
67157;SHT31;54086;50.126;8.710;2024-02-26T15:43:39;11.18;85.88
67157;SHT31;54086;50.126;8.710;2024-02-26T15:46:04;11.13;85.98
67157;SHT31;54086;50.126;8.710;2024-02-26T15:48:31;11.06;86.00